createdAt,value
2022-09-20T00:00:52.256Z,100183.56
2022-09-20T00:02:55.032Z,100197.25
2022-09-20T00:04:56.867Z,100196.94
2022-09-20T00:06:59.754Z,100194.38
2022-09-20T00:09:02.850Z,100196.44
2022-09-20T00:11:10.977Z,100191.72
2022-09-20T00:13:15.937Z,100188.03
2022-09-20T00:15:17.956Z,100190.84
2022-09-20T00:17:19.772Z,100189.03
2022-09-20T00:19:22.373Z,100193.22
2022-09-20T00:21:27.533Z,100199.91
2022-09-20T00:23:30.353Z,100195.69
2022-09-20T00:25:33.601Z,100196.88
2022-09-20T00:27:35.451Z,100194.31
2022-09-20T00:29:37.338Z,100194.69
2022-09-20T00:31:40.542Z,100200.72
2022-09-20T00:34:00.847Z,100197.66
2022-09-20T00:36:02.831Z,100198.19
2022-09-20T00:38:04.683Z,100203.19
2022-09-20T00:40:11.312Z,100197.84
2022-09-20T00:42:15.418Z,100200.34
2022-09-20T00:44:43.035Z,100203.19
2022-09-20T00:46:46.262Z,100203.88
2022-09-20T00:48:51.788Z,100202.34
2022-09-20T00:51:03.440Z,100203.81
2022-09-20T00:53:31.983Z,100203.16
2022-09-20T00:55:37.153Z,100199.44
2022-09-20T00:57:40.374Z,100211.09
2022-09-20T00:59:45.106Z,100207.44
2022-09-20T01:01:59.888Z,100211.91
2022-09-20T01:04:04.191Z,100211.38
2022-09-20T01:06:11.344Z,100208.88
2022-09-20T01:08:13.908Z,100209.88
2022-09-20T01:10:15.965Z,100210.88
2022-09-20T01:12:22.067Z,100210.56
2022-09-20T01:14:26.562Z,100217.03
2022-09-20T01:16:31.381Z,100205.34
2022-09-20T01:18:35.460Z,100204.34
2022-09-20T01:20:42.178Z,100203.34
2022-09-20T01:22:46.791Z,100212.44
2022-09-20T01:25:17.303Z,100214.44
2022-09-20T01:27:32.520Z,100211.75
2022-09-20T01:30:04.184Z,100213.91
2022-09-20T01:32:13.043Z,100216.78
2022-09-20T01:34:33.708Z,100213.28
2022-09-20T01:36:57.394Z,100204.78
2022-09-20T01:39:17.643Z,100219.16
2022-09-20T01:41:38.870Z,100219.97
2022-09-20T01:44:05.433Z,100215.28
2022-09-20T01:46:20.918Z,100220.31
2022-09-20T01:48:36.191Z,100215.97
2022-09-20T01:50:46.886Z,100221.81
2022-09-20T01:53:07.497Z,100230.81
2022-09-20T01:55:09.424Z,100217.09
2022-09-20T01:57:32.390Z,100225.28
2022-09-20T02:00:06.087Z,100216.78
2022-09-20T02:02:39.094Z,100222.59
2022-09-20T02:04:44.213Z,100223.59
2022-09-20T02:07:04.625Z,100230.81
2022-09-20T02:09:46.030Z,100226.84
2022-09-20T02:12:19.747Z,100229.38
2022-09-20T02:14:37.654Z,100229.25
2022-09-20T02:17:12.747Z,100234.91
2022-09-20T02:19:39.630Z,100237.56
2022-09-20T02:21:52.713Z,100229.72
2022-09-20T02:24:15.323Z,100232.03
2022-09-20T02:26:38.177Z,100228.06
2022-09-20T02:29:01.045Z,100234.69
2022-09-20T02:31:41.947Z,100237.38
2022-09-20T02:34:23.723Z,100235.34
2022-09-20T02:36:38.525Z,100228.47
2022-09-20T02:38:52.970Z,100236.84
2022-09-20T02:41:22.232Z,100227.16
2022-09-20T02:43:47.515Z,100234.31
2022-09-20T02:46:20.674Z,100234.47
2022-09-20T02:48:34.275Z,100244.34
2022-09-20T02:51:04.294Z,100244.47
2022-09-20T02:53:31.232Z,100238.84
2022-09-20T02:55:47.352Z,100247.66
2022-09-20T02:58:09.734Z,100242.19
2022-09-20T03:00:19.872Z,100241.41
2022-09-20T03:02:46.456Z,100247.06
2022-09-20T03:05:01.288Z,100250.75
2022-09-20T03:07:17.460Z,100248.75
2022-09-20T03:09:32.501Z,100255.94
2022-09-20T03:11:38.665Z,100251.13
2022-09-20T03:13:55.649Z,100252.25
2022-09-20T03:16:11.349Z,100248.75
2022-09-20T03:18:26.530Z,100246.13
2022-09-20T03:20:42.405Z,100248.81
2022-09-20T03:23:22.062Z,100253.16
2022-09-20T03:25:39.401Z,100243.47
2022-09-20T03:27:54.575Z,100244.31
2022-09-20T03:30:06.540Z,100255.69
2022-09-20T03:32:38.947Z,100245.13
2022-09-20T03:35:09.767Z,100253.88
2022-09-20T03:37:17.308Z,100254.53
2022-09-20T03:39:45.059Z,100245.50
2022-09-20T03:41:59.121Z,100252.63
2022-09-20T03:44:08.647Z,100257.81
2022-09-20T03:46:26.854Z,100266.00
2022-09-20T03:48:59.987Z,100265.81
2022-09-20T03:51:20.410Z,100265.16
2022-09-20T03:53:28.105Z,100274.38
2022-09-20T03:55:53.865Z,100262.16
2022-09-20T03:58:08.841Z,100258.97
2022-09-20T04:00:23.755Z,100268.50
2022-09-20T04:03:02.871Z,100263.31
2022-09-20T04:05:40.718Z,100268.34
2022-09-20T04:08:26.873Z,100269.47
2022-09-20T04:10:47.123Z,100263.31
2022-09-20T04:13:19.927Z,100272.84
2022-09-20T04:15:53.659Z,100270.69
2022-09-20T04:18:14.943Z,100265.03
2022-09-20T04:20:35.212Z,100275.19
2022-09-20T04:22:37.192Z,100284.09
2022-09-20T04:24:57.926Z,100278.75
2022-09-20T04:27:17.104Z,100292.44
2022-09-20T04:29:27.174Z,100291.13
2022-09-20T04:31:54.440Z,100290.13
2022-09-20T04:33:58.606Z,100294.63
2022-09-20T04:36:29.159Z,100293.78
2022-09-20T04:38:31.492Z,100289.78
2022-09-20T04:41:00.184Z,100296.97
2022-09-20T04:43:11.600Z,100300.47
2022-09-20T04:45:55.280Z,100300.69
2022-09-20T04:48:26.036Z,100296.19
2022-09-20T04:50:53.702Z,100305.88
2022-09-20T04:53:15.151Z,100304.41
2022-09-20T04:55:48.742Z,100308.09
2022-09-20T04:58:13.013Z,100315.94
2022-09-20T05:00:21.147Z,100320.09
2022-09-20T05:02:42.663Z,100322.16
2022-09-20T05:04:49.296Z,100326.66
2022-09-20T05:07:20.812Z,100338.03
2022-09-20T05:09:49.420Z,100337.84
2022-09-20T05:12:35.741Z,100344.06
2022-09-20T05:14:53.279Z,100353.88
2022-09-20T05:17:31.632Z,100347.75
2022-09-20T05:19:56.101Z,100353.44
2022-09-20T05:22:00.545Z,100355.25
2022-09-20T05:24:06.722Z,100357.94
2022-09-20T05:26:25.062Z,100354.25
2022-09-20T05:28:50.266Z,100360.59
2022-09-20T05:31:19.930Z,100359.31
2022-09-20T05:33:37.788Z,100357.13
2022-09-20T05:36:02.478Z,100369.34
2022-09-20T05:38:19.505Z,100363.00
2022-09-20T05:40:29.113Z,100370.34
2022-09-20T05:42:44.680Z,100366.97
2022-09-20T05:45:23.960Z,100373.84
2022-09-20T05:47:59.829Z,100372.50
2022-09-20T05:50:16.865Z,100375.19
2022-09-20T05:53:00.718Z,100372.03
2022-09-20T05:55:17.456Z,100372.91
2022-09-20T05:57:37.896Z,100377.56
2022-09-20T06:00:04.701Z,100381.59
2022-09-20T06:02:31.239Z,100379.13
2022-09-20T06:04:50.649Z,100380.81
2022-09-20T06:07:20.840Z,100386.28
2022-09-20T06:09:51.296Z,100391.50
2022-09-20T06:12:16.553Z,100384.47
2022-09-20T06:14:47.119Z,100381.25
2022-09-20T06:17:22.324Z,100394.69
2022-09-20T06:19:33.180Z,100387.34
2022-09-20T06:21:55.110Z,100392.22
2022-09-20T06:24:00.406Z,100395.88
2022-09-20T06:26:15.093Z,100396.41
2022-09-20T06:28:20.991Z,100404.09
2022-09-20T06:30:40.126Z,100391.25
2022-09-20T06:33:13.206Z,100394.78
2022-09-20T06:35:15.182Z,100397.34
2022-09-20T06:37:44.837Z,100387.25
2022-09-20T06:40:12.378Z,100393.78
2022-09-20T06:42:16.338Z,100394.84
2022-09-20T06:44:18.399Z,100395.47
2022-09-20T06:46:22.868Z,100400.19
2022-09-20T06:48:25.796Z,100395.34
2022-09-20T06:50:27.773Z,100382.84
2022-09-20T06:52:29.852Z,100385.34
2022-09-20T06:54:32.147Z,100401.38
2022-09-20T06:56:36.969Z,100409.25
2022-09-20T06:58:39.906Z,100409.44
2022-09-20T07:00:41.776Z,100393.22
2022-09-20T07:02:43.930Z,100402.25
2022-09-20T07:04:46.224Z,100402.94
2022-09-20T07:06:48.479Z,100413.47
2022-09-20T07:08:50.442Z,100412.84
2022-09-20T07:10:52.465Z,100420.88
2022-09-20T07:13:00.545Z,100430.59
2022-09-20T07:15:02.389Z,100424.38
2022-09-20T07:17:10.099Z,100427.41
2022-09-20T07:19:11.930Z,100424.88
2022-09-20T07:21:16.190Z,100426.91
2022-09-20T07:23:18.775Z,100429.41
2022-09-20T07:25:21.828Z,100441.13
2022-09-20T07:27:29.078Z,100437.63
2022-09-20T07:29:32.805Z,100437.25
2022-09-20T07:31:34.759Z,100439.13
2022-09-20T07:33:36.935Z,100443.78
2022-09-20T07:35:41.880Z,100443.28
2022-09-20T07:37:56.935Z,100449.50
2022-09-20T07:39:58.876Z,100449.00
2022-09-20T07:42:02.044Z,100448.84
2022-09-20T07:44:27.960Z,100455.88
2022-09-20T07:46:29.919Z,100452.03
2022-09-20T07:48:34.773Z,100468.63
2022-09-20T07:50:37.061Z,100465.28
2022-09-20T07:52:39.085Z,100464.25
2022-09-20T07:54:40.934Z,100465.75
2022-09-20T07:56:45.095Z,100473.66
2022-09-20T07:58:52.230Z,100479.84
2022-09-20T08:00:56.632Z,100487.38
2022-09-20T08:03:00.542Z,100480.97
2022-09-20T08:05:02.666Z,100484.16
2022-09-20T08:07:05.888Z,100488.00
2022-09-20T08:09:11.090Z,100489.00
2022-09-20T08:11:29.873Z,100486.00
2022-09-20T08:16:03.303Z,100481.50
2022-09-20T08:18:07.850Z,100485.38
2022-09-20T08:20:10.059Z,100487.19
2022-09-20T08:22:12.862Z,100489.41
2022-09-20T08:24:17.553Z,100479.03
2022-09-20T08:26:21.976Z,100484.19
2022-09-20T08:28:24.855Z,100486.72
2022-09-20T08:30:27.803Z,100483.50
2022-09-20T08:32:30.805Z,100489.56
2022-09-20T08:34:32.679Z,100482.66
2022-09-20T08:36:37.204Z,100476.78
2022-09-20T08:41:25.461Z,100487.28
2022-09-20T08:43:32.718Z,100482.75
2022-09-20T08:45:35.292Z,100476.38
2022-09-20T08:47:43.298Z,100481.59
2022-09-20T08:49:46.589Z,100483.69
2022-09-20T08:51:50.581Z,100477.78
2022-09-20T08:53:54.539Z,100484.94
2022-09-20T08:55:59.448Z,100479.19
2022-09-20T08:58:08.227Z,100486.38
2022-09-20T09:00:18.434Z,100487.91
2022-09-20T09:02:22.056Z,100485.09
2022-09-20T09:04:31.395Z,100493.13
2022-09-20T09:06:34.154Z,100490.94
2022-09-20T09:08:39.012Z,100490.59
2022-09-20T09:10:42.886Z,100491.38
2022-09-20T09:12:48.609Z,100491.84
2022-09-20T09:14:58.417Z,100491.53
2022-09-20T09:17:01.076Z,100489.69
2022-09-20T09:19:33.193Z,100494.06
2022-09-20T09:21:43.532Z,100492.91
2022-09-20T09:24:05.048Z,100501.19
2022-09-20T09:26:16.206Z,100500.06
2022-09-20T09:28:25.719Z,100499.41
2022-09-20T09:30:36.657Z,100501.78
2022-09-20T09:32:39.565Z,100500.44
2022-09-20T09:34:41.454Z,100496.53
2022-09-20T09:36:46.423Z,100499.53
2022-09-20T09:38:49.863Z,100500.81
2022-09-20T09:40:56.718Z,100501.41
2022-09-20T09:43:02.041Z,100496.69
2022-09-20T09:45:28.367Z,100492.53
2022-09-20T09:47:37.685Z,100504.25
2022-09-20T09:50:00.777Z,100504.44
2022-09-20T09:52:06.776Z,100496.28
2022-09-20T09:54:17.945Z,100502.97
2022-09-20T09:56:49.941Z,100499.25
2022-09-20T09:59:21.037Z,100498.06
2022-09-20T10:01:48.919Z,100493.41
2022-09-20T10:04:09.110Z,100491.69
2022-09-20T10:06:22.870Z,100494.41
2022-09-20T10:09:07.621Z,100498.19
2022-09-20T10:11:20.253Z,100492.94
2022-09-20T10:13:49.788Z,100495.22
2022-09-20T10:16:09.522Z,100484.59
2022-09-20T10:18:40.043Z,100487.94
2022-09-20T10:21:10.264Z,100484.03
2022-09-20T10:26:22.366Z,100487.19
2022-09-20T10:28:25.189Z,100490.53
2022-09-20T10:30:58.548Z,100495.56
2022-09-20T10:33:10.027Z,100491.75
2022-09-20T10:35:24.080Z,100500.19
2022-09-20T10:37:49.023Z,100493.88
2022-09-20T10:40:16.751Z,100493.22
2022-09-20T10:43:00.071Z,100491.56
2022-09-20T10:45:11.160Z,100497.78
2022-09-20T10:47:22.426Z,100487.00
2022-09-20T10:49:30.211Z,100491.91
2022-09-20T10:52:08.621Z,100490.41
2022-09-20T10:54:23.978Z,100491.78
2022-09-20T10:56:33.787Z,100480.34
2022-09-20T10:58:47.907Z,100488.03
2022-09-20T11:01:16.498Z,100486.38
2022-09-20T11:03:52.893Z,100483.66
2022-09-20T11:06:33.120Z,100476.00
2022-09-20T11:08:38.361Z,100475.63
2022-09-20T11:10:52.329Z,100474.06
2022-09-20T11:13:05.723Z,100463.97
2022-09-20T11:15:21.378Z,100460.78
2022-09-20T11:17:39.053Z,100461.22
2022-09-20T11:20:04.861Z,100461.72
2022-09-20T11:22:20.292Z,100469.75
2022-09-20T11:24:37.217Z,100465.00
2022-09-20T11:26:45.170Z,100470.19
2022-09-20T11:28:55.415Z,100464.06
2022-09-20T11:31:20.526Z,100473.47
2022-09-20T11:33:29.073Z,100465.00
2022-09-20T11:35:36.835Z,100463.28
2022-09-20T11:37:45.039Z,100467.34
2022-09-20T11:39:55.612Z,100479.69
2022-09-20T11:42:00.569Z,100475.06
2022-09-20T11:44:17.035Z,100479.19
2022-09-20T11:46:29.902Z,100486.75
2022-09-20T11:48:39.252Z,100477.00
2022-09-20T11:50:52.809Z,100482.56
2022-09-20T11:53:14.038Z,100478.66
2022-09-20T11:55:24.763Z,100472.63
2022-09-20T11:57:28.715Z,100473.38
2022-09-20T11:59:50.636Z,100477.41
2022-09-20T12:01:56.433Z,100470.69
2022-09-20T12:04:34.615Z,100472.09
2022-09-20T12:06:41.622Z,100479.50
2022-09-20T12:08:49.217Z,100472.56
2022-09-20T12:11:13.719Z,100472.50
2022-09-20T12:13:26.307Z,100470.94
2022-09-20T12:15:39.347Z,100471.41
2022-09-20T12:17:47.365Z,100464.41
2022-09-20T12:19:49.248Z,100471.16
2022-09-20T12:21:59.762Z,100466.78
2022-09-20T12:24:10.844Z,100468.50
2022-09-20T12:26:19.046Z,100462.41
2022-09-20T12:28:36.435Z,100454.91
2022-09-20T12:30:38.344Z,100455.31
2022-09-20T12:32:46.208Z,100457.88
2022-09-20T12:34:48.052Z,100452.97
2022-09-20T12:36:55.890Z,100441.22
2022-09-20T12:39:09.699Z,100440.81
2022-09-20T12:41:16.247Z,100439.34
2022-09-20T12:43:22.423Z,100435.41
2022-09-20T12:45:24.764Z,100440.75
2022-09-20T12:47:33.646Z,100443.19
2022-09-20T12:50:09.722Z,100433.69
2022-09-20T12:52:50.949Z,100434.75
2022-09-20T12:54:57.185Z,100431.59
2022-09-20T12:57:18.277Z,100435.72
2022-09-20T12:59:24.731Z,100441.81
2022-09-20T13:01:29.473Z,100438.25
2022-09-20T13:03:36.605Z,100430.00
2022-09-20T13:05:41.813Z,100437.88
2022-09-20T13:07:59.526Z,100438.41
2022-09-20T13:10:37.823Z,100433.91
2022-09-20T13:12:40.566Z,100438.03
2022-09-20T13:14:45.157Z,100443.16
2022-09-20T13:16:57.896Z,100448.06
2022-09-20T13:19:23.199Z,100454.88
2022-09-20T13:21:26.039Z,100452.28
2022-09-20T13:23:32.341Z,100447.63
2022-09-20T13:25:34.779Z,100445.66
2022-09-20T13:27:47.250Z,100446.34
2022-09-20T13:29:51.834Z,100450.41
2022-09-20T13:31:56.879Z,100445.38
2022-09-20T13:34:25.994Z,100449.53
2022-09-20T13:36:30.403Z,100440.16
2022-09-20T13:38:34.589Z,100437.91
2022-09-20T13:40:39.453Z,100446.66
2022-09-20T13:42:42.058Z,100450.97
2022-09-20T13:44:45.817Z,100455.03
2022-09-20T13:46:48.648Z,100452.56
2022-09-20T13:49:20.962Z,100458.63
2022-09-20T13:51:28.684Z,100452.44
2022-09-20T13:53:42.992Z,100451.81
2022-09-20T13:55:46.450Z,100451.19
2022-09-20T13:57:51.450Z,100448.91
2022-09-20T13:59:54.618Z,100449.47
2022-09-20T14:01:57.934Z,100444.97
2022-09-20T14:04:05.750Z,100441.81
2022-09-20T14:06:14.408Z,100444.94
2022-09-20T14:08:49.915Z,100444.28
2022-09-20T14:11:04.546Z,100440.31
2022-09-20T14:13:08.719Z,100445.28
2022-09-20T14:15:17.041Z,100448.16
2022-09-20T14:17:21.972Z,100442.22
2022-09-20T14:19:31.713Z,100444.25
2022-09-20T14:21:40.851Z,100441.13
2022-09-20T14:23:54.352Z,100442.56
2022-09-20T14:26:17.813Z,100439.81
2022-09-20T14:28:20.707Z,100439.13
2022-09-20T14:30:37.135Z,100449.06
2022-09-20T14:32:50.861Z,100453.56
2022-09-20T14:34:58.991Z,100462.47
2022-09-20T14:37:37.479Z,100456.13
2022-09-20T14:39:49.388Z,100467.19
2022-09-20T14:41:51.412Z,100467.06
2022-09-20T14:43:59.080Z,100466.97
2022-09-20T14:46:17.300Z,100472.28
2022-09-20T14:48:19.150Z,100476.72
2022-09-20T14:50:32.619Z,100467.00
2022-09-20T14:52:40.323Z,100474.75
2022-09-20T14:54:43.282Z,100481.78
2022-09-20T14:56:53.184Z,100476.41
2022-09-20T14:59:36.603Z,100478.91
2022-09-20T15:01:41.512Z,100478.00
2022-09-20T15:03:43.371Z,100485.72
2022-09-20T15:05:51.153Z,100489.59
2022-09-20T15:07:55.329Z,100496.38
2022-09-20T15:09:57.180Z,100502.72
2022-09-20T15:12:01.006Z,100495.81
2022-09-20T15:14:02.887Z,100502.75
2022-09-20T15:16:05.989Z,100505.88
2022-09-20T15:18:22.476Z,100509.78
2022-09-20T15:20:24.839Z,100515.47
2022-09-20T15:22:27.713Z,100511.25
2022-09-20T15:24:30.681Z,100516.81
2022-09-20T15:26:33.107Z,100517.97
2022-09-20T15:28:38.170Z,100523.81
2022-09-20T15:30:40.719Z,100524.59
2022-09-20T15:32:46.619Z,100531.69
2022-09-20T15:34:48.499Z,100546.28
2022-09-20T15:36:50.993Z,100541.38
2022-09-20T15:38:54.371Z,100540.47
2022-09-20T15:40:56.492Z,100539.25
2022-09-20T15:43:00.283Z,100541.28
2022-09-20T15:45:02.201Z,100539.25
2022-09-20T15:47:04.728Z,100531.63
2022-09-20T15:49:08.255Z,100535.28
2022-09-20T15:51:13.637Z,100535.28
2022-09-20T15:53:16.436Z,100535.41
2022-09-20T15:55:21.986Z,100528.78
2022-09-20T15:57:32.301Z,100528.63
2022-09-20T15:59:34.654Z,100530.75
2022-09-20T16:01:38.396Z,100538.34
2022-09-20T16:03:41.391Z,100556.00
2022-09-20T16:05:45.260Z,100552.47
2022-09-20T16:07:47.337Z,100550.22
2022-09-20T16:09:50.252Z,100551.34
2022-09-20T16:11:58.821Z,100562.41
2022-09-20T16:14:01.495Z,100567.59
2022-09-20T16:16:07.641Z,100562.34
2022-09-20T16:18:32.241Z,100566.13
2022-09-20T16:20:34.097Z,100566.22
2022-09-20T16:22:37.045Z,100573.28
2022-09-20T16:24:39.913Z,100581.03
2022-09-20T16:26:43.530Z,100565.94
2022-09-20T16:28:47.726Z,100577.78
2022-09-20T16:31:00.252Z,100575.78
2022-09-20T16:33:05.654Z,100586.88
2022-09-20T16:35:08.110Z,100602.16
2022-09-20T16:37:16.022Z,100605.06
2022-09-20T16:39:20.424Z,100614.81
2022-09-20T16:41:23.616Z,100616.31
2022-09-20T16:43:26.547Z,100612.09
2022-09-20T16:45:29.605Z,100605.94
2022-09-20T16:47:41.223Z,100605.63
2022-09-20T16:49:42.956Z,100605.47
2022-09-20T16:51:46.470Z,100607.50
2022-09-20T16:53:48.386Z,100616.63
2022-09-20T16:55:50.266Z,100614.25
2022-09-20T16:57:52.168Z,100626.31
2022-09-20T16:59:55.975Z,100634.41
2022-09-20T17:01:58.087Z,100625.50
2022-09-20T17:04:03.109Z,100636.38
2022-09-20T17:06:06.193Z,100637.72
2022-09-20T17:08:09.318Z,100639.25
2022-09-20T17:10:11.665Z,100646.28
2022-09-20T17:12:15.286Z,100645.47
2022-09-20T17:14:19.241Z,100646.66
2022-09-20T17:16:23.906Z,100650.66
2022-09-20T17:18:25.781Z,100650.84
2022-09-20T17:20:28.853Z,100654.34
2022-09-20T17:22:30.787Z,100653.69
2022-09-20T17:24:33.911Z,100664.41
2022-09-20T17:26:38.988Z,100664.41
2022-09-20T17:28:46.169Z,100670.78
2022-09-20T17:30:49.022Z,100673.31
2022-09-20T17:32:51.971Z,100666.28
2022-09-20T17:34:53.900Z,100675.47
2022-09-20T17:36:55.866Z,100681.31
2022-09-20T17:39:04.087Z,100671.44
2022-09-20T17:41:11.018Z,100675.63
2022-09-20T17:43:12.889Z,100679.16
2022-09-20T17:45:14.759Z,100683.53
2022-09-20T17:47:18.340Z,100681.00
2022-09-20T17:49:24.452Z,100684.31
2022-09-20T17:51:32.632Z,100686.69
2022-09-20T17:53:36.184Z,100685.38
2022-09-20T17:55:38.986Z,100685.00
2022-09-20T17:57:41.206Z,100683.31
2022-09-20T17:59:43.160Z,100686.88
2022-09-20T18:01:47.362Z,100694.38
2022-09-20T18:03:50.229Z,100698.06
2022-09-20T18:05:52.295Z,100695.75
2022-09-20T18:07:54.135Z,100701.94
2022-09-20T18:09:58.017Z,100705.09
2022-09-20T18:11:59.932Z,100710.47
2022-09-20T18:14:04.479Z,100714.66
2022-09-20T18:16:11.874Z,100714.00
2022-09-20T18:18:13.761Z,100717.66
2022-09-20T18:20:16.729Z,100719.50
2022-09-20T18:22:18.792Z,100720.88
2022-09-20T18:24:22.051Z,100716.66
2022-09-20T18:26:27.239Z,100721.19
2022-09-20T18:28:31.227Z,100719.00
2022-09-20T18:30:33.186Z,100720.53
2022-09-20T18:32:35.016Z,100721.00
2022-09-20T18:34:36.900Z,100722.50
2022-09-20T18:36:40.358Z,100726.53
2022-09-20T18:38:45.888Z,100727.84
2022-09-20T18:41:00.500Z,100725.16
2022-09-20T18:43:04.669Z,100733.50
2022-09-20T18:45:08.575Z,100730.47
2022-09-20T18:47:11.908Z,100733.00
2022-09-20T18:49:16.563Z,100732.00
2022-09-20T18:51:19.003Z,100738.38
2022-09-20T18:53:20.913Z,100737.38
2022-09-20T18:55:24.671Z,100733.81
2022-09-20T18:57:26.852Z,100739.34
2022-09-20T18:59:29.919Z,100742.03
2022-09-20T19:01:55.457Z,100743.34
2022-09-20T19:04:29.475Z,100744.84
2022-09-20T19:06:44.498Z,100745.69
2022-09-20T19:09:10.619Z,100745.31
2022-09-20T19:11:26.610Z,100749.47
2022-09-20T19:13:46.960Z,100754.53
2022-09-20T19:16:10.373Z,100750.69
2022-09-20T19:18:27.262Z,100761.38
2022-09-20T19:20:47.129Z,100763.38
2022-09-20T19:22:55.103Z,100774.25
2022-09-20T19:25:03.590Z,100768.16
2022-09-20T19:27:05.819Z,100765.22
2022-09-20T19:29:21.253Z,100770.56
2022-09-20T19:31:24.972Z,100773.59
2022-09-20T19:33:28.179Z,100770.81
2022-09-20T19:35:39.192Z,100767.28
2022-09-20T19:37:54.931Z,100771.31
2022-09-20T19:40:15.837Z,100770.66
2022-09-20T19:42:33.370Z,100765.31
2022-09-20T19:44:54.629Z,100762.69
2022-09-20T19:47:07.065Z,100767.06
2022-09-20T19:49:39.408Z,100762.31
2022-09-20T19:51:44.381Z,100760.63
2022-09-20T19:53:47.556Z,100757.44
2022-09-20T19:56:27.735Z,100759.94
2022-09-20T19:58:30.082Z,100769.28
2022-09-20T20:00:33.290Z,100767.41
2022-09-20T20:02:35.345Z,100773.25
2022-09-20T20:04:37.622Z,100775.22
2022-09-20T20:07:01.755Z,100776.47
2022-09-20T20:09:10.387Z,100776.47
2022-09-20T20:11:14.885Z,100775.56
2022-09-20T20:13:44.730Z,100780.94
2022-09-20T20:15:57.540Z,100778.34
2022-09-20T20:18:16.622Z,100776.06
2022-09-20T20:20:22.922Z,100779.91
2022-09-20T20:22:31.134Z,100782.81
2022-09-20T20:24:48.099Z,100789.22
2022-09-20T20:26:51.541Z,100786.41
2022-09-20T20:28:54.023Z,100796.56
2022-09-20T20:31:02.393Z,100800.00
2022-09-20T20:33:06.319Z,100800.19
2022-09-20T20:35:08.831Z,100800.41
2022-09-20T20:37:13.510Z,100800.47
2022-09-20T20:39:16.107Z,100801.09
2022-09-20T20:41:20.731Z,100808.84
2022-09-20T20:43:23.794Z,100806.44
2022-09-20T20:45:26.936Z,100804.13
2022-09-20T20:47:28.826Z,100809.00
2022-09-20T20:49:37.706Z,100812.09
2022-09-20T20:51:39.609Z,100810.19
2022-09-20T20:53:47.427Z,100806.50
2022-09-20T20:55:49.249Z,100807.50
2022-09-20T20:57:58.481Z,100805.53
2022-09-20T21:00:00.863Z,100810.41
2022-09-20T21:02:07.669Z,100805.38
2022-09-20T21:04:11.491Z,100804.53
2022-09-20T21:06:15.027Z,100811.81
2022-09-20T21:08:19.971Z,100813.16
2022-09-20T21:10:22.364Z,100811.88
2022-09-20T21:12:24.222Z,100813.63
2022-09-20T21:14:27.046Z,100813.31
2022-09-20T21:16:32.232Z,100815.25
2022-09-20T21:18:35.530Z,100814.78
2022-09-20T21:20:38.704Z,100813.09
2022-09-20T21:22:40.637Z,100814.78
2022-09-20T21:24:42.575Z,100812.69
2022-09-20T21:26:48.880Z,100816.75
2022-09-20T21:28:59.323Z,100813.25
2022-09-20T21:31:04.872Z,100817.28
2022-09-20T21:33:07.276Z,100819.66
2022-09-20T21:35:10.341Z,100816.97
2022-09-20T21:37:14.394Z,100815.75
2022-09-20T21:39:16.307Z,100813.72
2022-09-20T21:41:22.636Z,100817.22
2022-09-20T21:43:25.145Z,100821.34
2022-09-20T21:45:29.733Z,100819.97
2022-09-20T21:47:32.706Z,100819.44
2022-09-20T21:49:34.670Z,100817.91
2022-09-20T21:51:37.488Z,100820.53
2022-09-20T21:53:41.412Z,100814.09
2022-09-20T21:55:43.307Z,100825.25
2022-09-20T21:57:45.227Z,100815.69
2022-09-20T21:59:48.125Z,100826.31
2022-09-20T22:01:51.077Z,100822.22
2022-09-20T22:03:56.682Z,100822.22
2022-09-20T22:06:24.954Z,100825.34
2022-09-20T22:08:27.565Z,100828.31
2022-09-20T22:10:29.482Z,100822.28
2022-09-20T22:12:39.234Z,100828.16
2022-09-20T22:14:42.106Z,100831.19
2022-09-20T22:16:47.781Z,100830.28
2022-09-20T22:18:50.039Z,100832.25
2022-09-20T22:21:02.608Z,100835.75
2022-09-20T22:23:04.421Z,100834.94
2022-09-20T22:25:09.682Z,100834.63
2022-09-20T22:27:11.565Z,100831.13
2022-09-20T22:29:13.819Z,100837.16
2022-09-20T22:31:23.991Z,100838.69
2022-09-20T22:33:26.564Z,100837.16
2022-09-20T22:35:30.437Z,100842.50
2022-09-20T22:37:32.337Z,100841.38
2022-09-20T22:39:34.223Z,100846.72
2022-09-20T22:41:39.708Z,100841.38
2022-09-20T22:43:42.089Z,100843.75
2022-09-20T22:45:43.935Z,100837.16
2022-09-20T22:47:46.893Z,100841.97
2022-09-20T22:49:50.786Z,100834.31
2022-09-20T22:51:52.716Z,100847.16
2022-09-20T22:53:54.541Z,100843.25
2022-09-20T22:56:05.006Z,100840.56
2022-09-20T22:58:06.885Z,100843.25
2022-09-20T23:00:09.641Z,100838.59
2022-09-20T23:02:11.583Z,100834.25
2022-09-20T23:04:16.745Z,100843.41
2022-09-20T23:06:24.553Z,100844.38
2022-09-20T23:08:26.630Z,100833.94
2022-09-20T23:10:29.509Z,100840.28
2022-09-20T23:12:31.463Z,100837.59
2022-09-20T23:14:33.413Z,100830.94
2022-09-20T23:16:37.977Z,100838.16
2022-09-20T23:18:40.150Z,100839.53
2022-09-20T23:20:41.951Z,100836.16
2022-09-20T23:22:43.895Z,100833.03
2022-09-20T23:24:45.750Z,100840.63
2022-09-20T23:26:47.610Z,100837.09
2022-09-20T23:28:56.312Z,100833.41
2022-09-20T23:31:04.601Z,100841.31
2022-09-20T23:33:06.662Z,100843.53
2022-09-20T23:35:15.469Z,100843.63
2022-09-20T23:37:18.392Z,100838.44
2022-09-20T23:39:20.301Z,100837.44
2022-09-20T23:41:24.073Z,100847.56
2022-09-20T23:43:27.937Z,100833.19
2022-09-20T23:45:29.874Z,100836.41
2022-09-20T23:47:31.749Z,100846.94
2022-09-20T23:49:33.599Z,100841.59
2022-09-20T23:51:36.116Z,100842.44
2022-09-20T23:53:39.269Z,100839.47
2022-09-20T23:55:42.336Z,100842.81
2022-09-20T23:57:44.472Z,100844.38
2022-09-20T23:59:47.337Z,100849.72
